Time;durP1;ratioP1;P1;durP2;ratioP2;P2;SDS_P1;SDS_P2;PMS_P1;PMS_P2;Temp;Humidity;BMP_temperature;BMP_pressure;BME280_temperature;BME280_humidity;BME280_pressure;Samples;Min_cycle;Max_cycle;Signal;HPM_P1;HPM_P2
2021/03/05 00:01:16;;;;;;;;;;;;;;;18.53;66.56;101280.75;5089792;28;1310;-68
2021/03/05 00:03:43;;;;;;;;;;;;;;;18.52;66.72;101271.13;5090261;28;944;-68
2021/03/05 00:06:10;;;;;;;;;;;;;;;18.52;66.73;101271.13;5089170;28;1333;-69
2021/03/05 00:08:36;;;;;;;;;;;;;;;18.52;66.68;101276.41;5071549;28;1544;-69
2021/03/05 00:11:02;;;;;;;;;;;;;;;18.51;66.78;101274.72;5089334;28;1489;-69
2021/03/05 00:13:28;;;;;;;;;;;;;;;18.43;66.68;101260.97;5089870;28;1104;-68
2021/03/05 00:15:54;;;;;;;;;;;;;;;18.48;66.93;101274.81;5089472;28;1224;-69
2021/03/05 00:18:21;;;;;;;;;;;;;;;18.48;66.69;101274.81;5089527;28;1977;-70
2021/03/05 00:20:51;;;;;;;;;;;;;;;18.47;66.58;101268.69;5089522;28;1220;-69
2021/03/05 00:23:17;;;;;;;;;;;;;;;18.46;67.11;101260.84;5089446;28;1049;-69
2021/03/05 00:25:44;;;;;;;;;;;;;;;18.45;66.93;101259.97;5089229;28;1303;-69
2021/03/05 00:28:11;;;;;;;;;;;;;;;18.44;66.89;101266.19;5089439;28;999;-69
2021/03/05 00:30:37;;;;;;;;;;;;;;;18.44;66.55;101262.69;5089277;28;1761;-69
2021/03/05 00:33:04;;;;;;;;;;;;;;;18.44;66.85;101265.34;5089276;28;917;-68
2021/03/05 00:35:50;;;;;;;;;;;;;;;18.43;66.66;101264.47;5089325;28;1402;-69
2021/03/05 00:38:17;;;;;;;;;;;;;;;18.43;66.85;101259.19;5089318;28;1948;-69
2021/03/05 00:40:43;;;;;;;;;;;;;;;18.42;66.56;101254.00;5088817;28;1232;-69
2021/03/05 00:43:09;;;;;;;;;;;;;;;18.41;66.88;101257.56;5089247;28;1131;-68
2021/03/05 00:45:35;;;;;;;;;;;;;;;18.42;66.66;101251.38;5088883;28;1316;-69
2021/03/05 00:48:03;;;;;;;;;;;;;;;18.39;66.65;101249.72;5089190;28;928;-68
2021/03/05 00:50:29;;;;;;;;;;;;;;;18.39;66.89;101251.53;5070872;28;1315;-68
2021/03/05 00:52:55;;;;;;;;;;;;;;;18.40;66.77;101250.56;5088249;28;1049;-68
2021/03/05 00:55:22;;;;;;;;;;;;;;;18.39;66.73;101249.72;5088777;28;1372;-68
2021/03/05 00:57:48;;;;;;;;;;;;;;;18.39;66.65;101247.06;5089147;28;1910;-68
2021/03/05 01:00:15;;;;;;;;;;;;;;;18.38;66.70;101244.53;5070872;28;1407;-68
2021/03/05 01:02:42;;;;;;;;;;;;;;;18.38;67.07;101247.16;5089763;28;1103;-68
2021/03/05 01:05:09;;;;;;;;;;;;;;;18.37;66.83;101245.44;5071273;28;1248;-67
2021/03/05 01:07:35;;;;;;;;;;;;;;;18.36;67.02;101249.03;5089976;28;1753;-67
2021/03/05 01:10:02;;;;;;;;;;;;;;;18.36;67.10;101236.66;5090150;28;1244;-67
2021/03/05 01:12:33;;;;;;;;;;;;;;;18.36;67.14;101244.59;5090058;28;1394;-67
2021/03/05 01:14:59;;;;;;;;;;;;;;;18.36;66.91;101243.75;5089619;28;1257;-68
2021/03/05 01:17:25;;;;;;;;;;;;;;;18.35;66.82;101242.91;5070964;28;1975;-68
2021/03/05 01:19:52;;;;;;;;;;;;;;;18.35;67.12;101237.63;5071112;28;1222;-68
2021/03/05 01:22:18;;;;;;;;;;;;;;;18.34;66.87;101242.94;5089630;28;1100;-68
2021/03/05 01:24:44;;;;;;;;;;;;;;;18.33;66.84;101236.00;5071124;28;1450;-67
2021/03/05 01:27:10;;;;;;;;;;;;;;;18.34;66.87;101235.03;5089468;28;1301;-67
2021/03/05 01:29:37;;;;;;;;;;;;;;;18.31;66.92;101230.78;5089327;28;814;-67
2021/03/05 01:32:03;;;;;;;;;;;;;;;18.34;66.76;101224.50;5089535;28;1325;-68
2021/03/05 01:34:30;;;;;;;;;;;;;;;18.31;67.02;101232.53;5055080;28;1148;-68
2021/03/05 01:36:56;;;;;;;;;;;;;;;18.31;66.88;101220.22;5089469;28;1887;-68
2021/03/05 01:39:22;;;;;;;;;;;;;;;18.32;66.77;101229.84;5089229;28;809;-67
2021/03/05 01:41:50;;;;;;;;;;;;;;;18.32;66.73;101221.09;5089412;28;1273;-69
2021/03/05 01:44:16;;;;;;;;;;;;;;;18.31;66.72;101220.22;5089962;28;1098;-69
2021/03/05 01:46:42;;;;;;;;;;;;;;;18.30;66.70;101217.66;5089229;28;2773;-68
2021/03/05 01:49:09;;;;;;;;;;;;;;;18.29;66.81;101211.53;5070814;28;1242;-67
2021/03/05 01:51:36;;;;;;;;;;;;;;;18.30;66.81;101209.75;5071692;28;1240;-69
2021/03/05 01:54:03;;;;;;;;;;;;;;;18.29;66.93;101205.41;5093139;28;1002;-69
2021/03/05 01:56:50;;;;;;;;;;;;;;;18.28;66.72;101203.69;5093037;28;1306;-69
2021/03/05 01:59:19;;;;;;;;;;;;;;;18.29;66.77;101205.41;5074745;28;1984;-69
2021/03/05 02:01:45;;;;;;;;;;;;;;;18.27;66.89;101200.19;5092424;28;1328;-69
2021/03/05 02:04:13;;;;;;;;;;;;;;;18.27;66.98;101196.72;5092374;28;1286;-68
2021/03/05 02:07:00;;;;;;;;;;;;;;;18.25;67.09;101196.78;5073500;28;1257;-69
2021/03/05 02:09:26;;;;;;;;;;;;;;;18.27;67.00;101202.00;5092198;28;1218;-69
2021/03/05 02:11:53;;;;;;;;;;;;;;;18.26;66.99;101201.13;5091479;28;1339;-68
2021/03/05 02:14:19;;;;;;;;;;;;;;;18.26;67.22;101200.28;5091829;28;818;-68
2021/03/05 02:16:51;;;;;;;;;;;;;;;18.26;66.97;101192.38;5073262;28;1320;-69
2021/03/05 02:19:24;;;;;;;;;;;;;;;18.25;67.04;101194.16;5091592;28;2042;-69
2021/03/05 02:22:13;;;;;;;;;;;;;;;18.26;67.06;101197.63;5091988;28;1216;-69
2021/03/05 02:25:08;;;;;;;;;;;;;;;18.26;66.81;101189.72;5062966;28;987;-70
2021/03/05 02:27:34;;;;;;;;;;;;;;;18.25;66.82;101188.00;5085599;28;1074;-69
2021/03/05 02:30:20;;;;;;;;;;;;;;;18.24;66.95;101173.97;5091652;28;1213;-69
2021/03/05 02:33:01;;;;;;;;;;;;;;;18.23;67.08;101168.78;5091509;28;1704;-68
2021/03/05 02:35:30;;;;;;;;;;;;;;;18.22;67.04;101161.78;5072914;28;1327;-69
2021/03/05 02:37:58;;;;;;;;;;;;;;;18.23;66.92;101159.09;5091442;28;1906;-68
2021/03/05 02:40:28;;;;;;;;;;;;;;;18.23;67.14;101155.59;5091252;28;1315;-69
2021/03/05 02:43:01;;;;;;;;;;;;;;;18.23;67.08;101155.59;5072996;28;1186;-68
2021/03/05 02:45:30;;;;;;;;;;;;;;;18.22;67.13;101151.25;5091460;28;1244;-68
2021/03/05 02:48:06;;;;;;;;;;;;;;;18.23;66.97;101152.97;5091315;28;1044;-68
2021/03/05 02:50:33;;;;;;;;;;;;;;;18.24;66.85;101147.59;5091102;28;1339;-69
2021/03/05 02:53:01;;;;;;;;;;;;;;;18.23;66.97;101147.69;5091167;28;1816;-68
2021/03/05 02:55:28;;;;;;;;;;;;;;;18.23;66.84;101142.41;5091284;28;1311;-69
2021/03/05 02:57:57;;;;;;;;;;;;;;;18.24;66.69;101138.84;5091051;28;1898;-68
2021/03/05 03:00:24;;;;;;;;;;;;;;;18.22;66.81;101135.41;5073456;28;1739;-68
2021/03/05 03:02:52;;;;;;;;;;;;;;;18.24;66.73;101133.59;5092050;28;909;-69
2021/03/05 03:05:19;;;;;;;;;;;;;;;18.23;66.70;101130.09;5092437;28;1243;-68
2021/03/05 03:07:47;;;;;;;;;;;;;;;18.23;66.87;101131.84;5092077;28;1166;-69
2021/03/05 03:10:14;;;;;;;;;;;;;;;18.24;66.66;101128.31;5090913;28;1279;-68
2021/03/05 03:12:41;;;;;;;;;;;;;;;18.22;66.74;101125.72;5090554;28;1246;-69
2021/03/05 03:15:08;;;;;;;;;;;;;;;18.21;66.66;101121.38;5092518;28;1239;-68
2021/03/05 03:17:36;;;;;;;;;;;;;;;18.22;66.61;101127.50;5093735;28;1906;-69
2021/03/05 03:20:03;;;;;;;;;;;;;;;18.21;66.79;101118.72;5075579;28;1248;-68
2021/03/05 03:22:30;;;;;;;;;;;;;;;18.19;66.89;101111.84;5094210;28;879;-69
2021/03/05 03:24:56;;;;;;;;;;;;;;;18.18;67.00;101123.34;5091969;28;1228;-68
2021/03/05 03:27:22;;;;;;;;;;;;;;;18.17;66.88;101118.97;5072428;28;1232;-68
2021/03/05 03:29:49;;;;;;;;;;;;;;;18.19;66.90;101119.75;5090928;28;865;-69
2021/03/05 03:32:16;;;;;;;;;;;;;;;18.18;66.89;101120.69;5090252;28;1246;-68
2021/03/05 03:34:43;;;;;;;;;;;;;;;18.17;66.97;101116.34;5072791;28;813;-68
2021/03/05 03:37:11;;;;;;;;;;;;;;;18.18;66.77;101118.06;5090431;28;1984;-67
2021/03/05 03:39:38;;;;;;;;;;;;;;;18.19;66.80;101114.47;5090442;28;833;-67
2021/03/05 03:42:04;;;;;;;;;;;;;;;18.17;66.90;101116.34;5090086;28;1236;-68
2021/03/05 03:44:30;;;;;;;;;;;;;;;18.18;66.81;101115.41;5090014;28;972;-68
2021/03/05 03:46:57;;;;;;;;;;;;;;;18.16;67.10;101111.97;5090035;28;1301;-68
2021/03/05 03:49:37;;;;;;;;;;;;;;;18.17;66.99;101117.19;5071594;28;1312;-69
2021/03/05 03:52:09;;;;;;;;;;;;;;;18.17;67.01;101113.69;5089390;28;1264;-68
2021/03/05 03:54:37;;;;;;;;;;;;;;;18.16;67.14;101117.25;5090147;28;938;-68
2021/03/05 03:57:06;;;;;;;;;;;;;;;18.16;67.23;101111.97;5089995;28;1213;-68
2021/03/05 03:59:33;;;;;;;;;;;;;;;18.15;67.25;101112.94;5090223;28;1980;-68
2021/03/05 04:02:01;;;;;;;;;;;;;;;18.14;67.11;101112.06;5071471;28;1228;-68
2021/03/05 04:04:31;;;;;;;;;;;;;;;18.16;66.98;101120.75;5089798;28;810;-67
2021/03/05 04:06:58;;;;;;;;;;;;;;;18.16;66.89;101118.13;5090155;28;1212;-68
2021/03/05 04:09:25;;;;;;;;;;;;;;;18.17;66.82;101118.97;5071912;28;798;-67
2021/03/05 04:11:52;;;;;;;;;;;;;;;18.16;66.92;101115.47;5071369;28;1675;-67
2021/03/05 04:14:19;;;;;;;;;;;;;;;18.17;66.91;101116.34;5089435;28;1080;-68
2021/03/05 04:16:45;;;;;;;;;;;;;;;18.16;66.87;101126.03;5089340;28;1220;-68
2021/03/05 04:19:12;;;;;;;;;;;;;;;18.17;66.77;101118.97;5089656;28;1906;-68
2021/03/05 04:21:38;;;;;;;;;;;;;;;18.16;66.89;101120.75;5089626;28;1240;-68
2021/03/05 04:24:04;;;;;;;;;;;;;;;18.16;66.80;101117.25;5089840;28;1234;-68
2021/03/05 04:26:31;;;;;;;;;;;;;;;18.15;66.79;101118.22;5071289;28;1311;-68
2021/03/05 04:28:57;;;;;;;;;;;;;;;18.15;66.80;101118.22;5089110;28;1161;-68
2021/03/05 04:31:24;;;;;;;;;;;;;;;18.14;66.99;101113.84;5089157;28;1233;-67
2021/03/05 04:33:51;;;;;;;;;;;;;;;18.15;66.79;101118.22;5089646;28;1149;-68
2021/03/05 04:36:17;;;;;;;;;;;;;;;18.13;66.91;101120.03;5088940;28;1307;-68
2021/03/05 04:38:59;;;;;;;;;;;;;;;18.15;66.64;101110.28;5089495;28;1909;-67
2021/03/05 04:41:26;;;;;;;;;;;;;;;18.14;66.67;101112.06;5070554;28;1265;-67
2021/03/05 04:43:52;;;;;;;;;;;;;;;18.13;66.74;101114.78;5089388;28;1056;-67
2021/03/05 04:46:18;;;;;;;;;;;;;;;18.13;66.76;101112.13;5088843;28;1225;-67
2021/03/05 04:48:45;;;;;;;;;;;;;;;18.14;67.07;101106.81;5088968;28;1140;-67
2021/03/05 04:51:12;;;;;;;;;;;;;;;18.12;66.79;101099.91;5088501;28;1323;-68
2021/03/05 04:53:38;;;;;;;;;;;;;;;18.13;66.84;101101.59;5070741;28;2141;-68
2021/03/05 04:56:04;;;;;;;;;;;;;;;18.14;66.67;101095.41;5088870;28;1236;-67
2021/03/05 04:58:30;;;;;;;;;;;;;;;18.12;66.88;101092.00;5089240;28;1930;-67
2021/03/05 05:00:56;;;;;;;;;;;;;;;18.13;66.76;101085.78;5088875;28;1315;-68
2021/03/05 05:03:22;;;;;;;;;;;;;;;18.13;66.88;101083.13;5071248;28;1152;-68
2021/03/05 05:05:50;;;;;;;;;;;;;;;18.13;66.71;101088.41;5089226;28;1312;-68
2021/03/05 05:08:16;;;;;;;;;;;;;;;18.13;66.88;101084.00;5071336;28;1531;-67
2021/03/05 05:10:42;;;;;;;;;;;;;;;18.11;66.69;101080.59;5089147;28;1921;-68
2021/03/05 05:13:09;;;;;;;;;;;;;;;18.12;66.87;101081.44;5088822;28;1070;-68
2021/03/05 05:15:35;;;;;;;;;;;;;;;18.11;67.11;101074.47;5088828;28;1229;-69
2021/03/05 05:18:02;;;;;;;;;;;;;;;18.09;66.92;101074.50;5088888;28;1902;-69
2021/03/05 05:20:28;;;;;;;;;;;;;;;18.12;66.94;101070.91;5088821;28;1296;-69
2021/03/05 05:22:55;;;;;;;;;;;;;;;18.10;66.98;101072.75;5089000;28;1187;-69
2021/03/05 05:25:21;;;;;;;;;;;;;;;18.11;66.92;101072.69;5088676;28;1299;-68
2021/03/05 05:27:48;;;;;;;;;;;;;;;18.08;67.11;101075.47;5092136;28;1052;-68
2021/03/05 05:30:14;;;;;;;;;;;;;;;18.07;67.07;101075.53;5092767;28;1243;-67
2021/03/05 05:32:40;;;;;;;;;;;;;;;18.09;67.25;101076.31;5074903;28;1186;-67
2021/03/05 05:35:07;;;;;;;;;;;;;;;18.06;67.28;101065.91;5092942;28;1319;-67
2021/03/05 05:37:34;;;;;;;;;;;;;;;18.08;66.97;101070.19;5093097;28;1972;-68
2021/03/05 05:40:00;;;;;;;;;;;;;;;18.07;66.86;101067.63;5092925;28;1209;-68
2021/03/05 05:42:26;;;;;;;;;;;;;;;18.08;66.87;101066.69;5092460;28;1026;-68
2021/03/05 05:44:52;;;;;;;;;;;;;;;18.08;66.77;101062.28;5092502;28;1059;-68
2021/03/05 05:47:19;;;;;;;;;;;;;;;18.09;67.00;101060.50;5092577;28;1187;-68
2021/03/05 05:49:45;;;;;;;;;;;;;;;18.06;66.94;101050.94;5092645;28;1040;-69
2021/03/05 05:52:14;;;;;;;;;;;;;;;18.10;67.77;101056.91;5092264;28;1345;-70
2021/03/05 05:54:41;;;;;;;;;;;;;;;18.03;67.20;101059.84;5092255;28;960;-73
2021/03/05 05:57:07;;;;;;;;;;;;;;;18.06;67.10;101055.34;5092426;28;1310;-69
2021/03/05 05:59:34;;;;;;;;;;;;;;;18.05;67.10;101059.78;5092066;28;1984;-71
2021/03/05 06:02:01;;;;;;;;;;;;;;;18.05;67.12;101053.66;5092037;28;1234;-70
2021/03/05 06:04:28;;;;;;;;;;;;;;;18.03;67.18;101054.59;5074072;28;814;-70
2021/03/05 06:06:55;;;;;;;;;;;;;;;18.07;66.98;101057.06;5073571;28;1308;-69
2021/03/05 06:09:22;;;;;;;;;;;;;;;18.08;66.87;101058.78;5073899;28;1276;-68
2021/03/05 06:11:50;;;;;;;;;;;;;;;18.07;67.03;101057.06;5092076;28;1465;-70
2021/03/05 06:14:17;;;;;;;;;;;;;;;18.04;66.98;101063.34;5092347;28;961;-70
2021/03/05 06:16:55;;;;;;;;;;;;;;;18.07;67.12;101057.06;5073354;28;1248;-70
2021/03/05 06:19:24;;;;;;;;;;;;;;;18.04;66.97;101058.09;5068227;28;1906;-69
2021/03/05 06:21:52;;;;;;;;;;;;;;;18.04;67.10;101052.81;5089020;28;1228;-69
2021/03/05 06:24:19;;;;;;;;;;;;;;;18.05;67.00;101043.13;5090949;28;818;-69
2021/03/05 06:26:54;;;;;;;;;;;;;;;18.04;66.98;101050.16;5090843;28;1319;-69
2021/03/05 06:29:20;;;;;;;;;;;;;;;18.07;67.01;101052.66;5072254;28;1233;-69
2021/03/05 06:31:53;;;;;;;;;;;;;;;18.10;66.83;101057.78;5090756;28;1244;-68
2021/03/05 06:34:20;;;;;;;;;;;;;;;18.18;67.13;101057.41;5090581;28;1143;-68
2021/03/05 06:36:56;;;;;;;;;;;;;;;18.13;66.89;101056.75;5072323;28;1261;-70
2021/03/05 06:39:26;;;;;;;;;;;;;;;18.09;66.88;101057.88;5089395;28;1977;-69
2021/03/05 06:41:59;;;;;;;;;;;;;;;18.12;67.87;101057.72;5089319;28;1307;-70
2021/03/05 06:44:26;;;;;;;;;;;;;;;18.12;67.63;101058.53;5090409;28;816;-71
2021/03/05 06:46:52;;;;;;;;;;;;;;;18.07;67.25;101062.34;5090364;28;1315;-70
2021/03/05 06:49:19;;;;;;;;;;;;;;;18.06;66.94;101065.91;5090734;28;1126;-70
2021/03/05 06:51:53;;;;;;;;;;;;;;;18.16;67.18;101056.63;5074576;28;1520;-71
2021/03/05 06:54:19;;;;;;;;;;;;;;;18.12;67.87;101049.81;5099367;28;860;-69
2021/03/05 06:56:55;;;;;;;;;;;;;;;18.07;68.18;101057.94;5090377;28;1335;-70
2021/03/05 06:59:22;;;;;;;;;;;;;;;18.07;68.47;101060.56;5090797;28;1913;-69
2021/03/05 07:01:48;;;;;;;;;;;;;;;18.19;67.62;101064.38;5091176;28;1249;-68
2021/03/05 07:04:18;;;;;;;;;;;;;;;18.17;67.75;101063.59;5091390;28;1063;-71
2021/03/05 07:06:44;;;;;;;;;;;;;;;18.07;67.83;101073.75;5090143;28;1346;-71
2021/03/05 07:09:21;;;;;;;;;;;;;;;18.05;68.12;101067.72;5090206;28;1183;-69
2021/03/05 07:11:48;;;;;;;;;;;;;;;18.06;67.53;101068.53;5090348;28;1450;-70
2021/03/05 07:14:14;;;;;;;;;;;;;;;18.05;67.55;101069.47;5090477;28;1125;-71
2021/03/05 07:16:49;;;;;;;;;;;;;;;18.04;67.50;101071.25;5089900;28;1318;-70
2021/03/05 07:19:17;;;;;;;;;;;;;;;18.05;67.40;101074.75;5089585;28;1906;-71
2021/03/05 07:21:45;;;;;;;;;;;;;;;18.03;68.05;101073.03;5089890;28;1232;-68
2021/03/05 07:24:13;;;;;;;;;;;;;;;18.12;68.21;101073.53;5071457;28;1137;-70
2021/03/05 07:27:03;;;;;;;;;;;;;;;18.07;67.13;101072.88;5089638;28;1311;-69
2021/03/05 07:29:34;;;;;;;;;;;;;;;18.07;67.18;101083.44;5089726;28;780;-67
2021/03/05 07:32:00;;;;;;;;;;;;;;;18.19;68.13;101085.47;5089925;28;1244;-68
2021/03/05 07:34:28;;;;;;;;;;;;;;;18.22;68.26;101087.94;5088314;28;897;-68
2021/03/05 07:36:56;;;;;;;;;;;;;;;18.12;67.59;101095.47;5082036;28;1271;-68
2021/03/05 07:39:25;;;;;;;;;;;;;;;18.07;67.33;101096.63;5089762;28;1979;-69
2021/03/05 07:41:52;;;;;;;;;;;;;;;18.03;67.71;101091.50;5089945;28;1215;-67
2021/03/05 07:44:19;;;;;;;;;;;;;;;18.02;67.99;101092.41;5073851;28;1102;-68
2021/03/05 07:46:46;;;;;;;;;;;;;;;18.02;68.18;101095.03;5109338;28;1202;-68
2021/03/05 07:49:13;;;;;;;;;;;;;;;18.09;68.82;101097.41;5109531;28;1173;-69
2021/03/05 07:51:40;;;;;;;;;;;;;;;18.15;68.07;101092.66;5090555;28;1566;-68
2021/03/05 07:54:06;;;;;;;;;;;;;;;18.07;68.16;101096.63;5081732;28;1479;-70
2021/03/05 07:56:38;;;;;;;;;;;;;;;18.03;68.14;101099.41;5088652;28;1333;-69
2021/03/05 07:59:05;;;;;;;;;;;;;;;18.02;67.73;101100.31;5089835;28;1906;-69
2021/03/05 08:01:50;;;;;;;;;;;;;;;18.02;67.72;101102.13;5105956;28;1302;-70
2021/03/05 08:04:17;;;;;;;;;;;;;;;18.09;68.45;101102.69;5089690;28;1583;-70
2021/03/05 08:06:43;;;;;;;;;;;;;;;18.06;68.08;101102.81;5094300;28;1267;-69
2021/03/05 08:09:11;;;;;;;;;;;;;;;18.02;67.92;101108.22;5103611;28;1510;-68
2021/03/05 08:11:39;;;;;;;;;;;;;;;17.99;68.07;101108.38;5107603;28;1469;-68
2021/03/05 08:14:20;;;;;;;;;;;;;;;18.00;67.89;101111.88;5087139;28;1310;-70
2021/03/05 08:16:47;;;;;;;;;;;;;;;17.98;67.87;101105.81;5089164;28;1303;-69
2021/03/05 08:19:15;;;;;;;;;;;;;;;17.98;67.82;101111.97;5086851;28;1985;-68
2021/03/05 08:21:51;;;;;;;;;;;;;;;17.98;67.93;101111.97;5068882;28;1228;-69
2021/03/05 08:24:24;;;;;;;;;;;;;;;17.99;67.84;101116.28;5069022;28;1030;-68
2021/03/05 08:26:57;;;;;;;;;;;;;;;17.98;67.86;101124.28;5050336;28;1221;-67
2021/03/05 08:29:42;;;;;;;;;;;;;;;17.99;67.59;101121.56;5068505;28;1044;-69
2021/03/05 08:32:38;;;;;;;;;;;;;;;17.97;67.94;101125.19;5068829;28;1576;-69
2021/03/05 08:35:04;;;;;;;;;;;;;;;17.97;67.77;101123.41;5082064;28;1402;-68
2021/03/05 08:37:42;;;;;;;;;;;;;;;17.98;67.59;101132.19;5090250;28;1550;-69
2021/03/05 08:40:16;;;;;;;;;;;;;;;17.96;67.58;101128.78;5092594;28;1366;-68
2021/03/05 08:42:43;;;;;;;;;;;;;;;17.96;67.44;101129.59;5087326;28;2003;-68
2021/03/05 08:45:15;;;;;;;;;;;;;;;17.97;67.62;101135.72;5077591;28;1292;-68
2021/03/05 08:47:44;;;;;;;;;;;;;;;17.96;67.70;101134.06;5109046;28;1038;-68
2021/03/05 08:50:12;;;;;;;;;;;;;;;17.99;67.63;101133.91;5098271;28;1220;-69
2021/03/05 08:52:42;;;;;;;;;;;;;;;18.05;67.24;101135.38;5070885;28;1627;-69
2021/03/05 08:55:09;;;;;;;;;;;;;;;18.07;67.22;101134.38;5095777;28;1292;-69
2021/03/05 08:57:38;;;;;;;;;;;;;;;18.12;67.10;101134.19;5070401;28;1157;-69
2021/03/05 09:00:05;;;;;;;;;;;;;;;18.14;66.96;101132.31;5076951;28;1965;-69
2021/03/05 09:02:32;;;;;;;;;;;;;;;18.17;66.74;101129.53;5069898;28;1013;-68
2021/03/05 09:04:59;;;;;;;;;;;;;;;18.18;66.68;101133.88;5087983;28;1397;-68
2021/03/05 09:07:25;;;;;;;;;;;;;;;18.19;66.78;101132.94;5089000;28;1670;-70
2021/03/05 09:09:51;;;;;;;;;;;;;;;18.19;66.80;101131.16;5077935;28;928;-71
2021/03/05 09:12:21;;;;;;;;;;;;;;;18.19;66.54;101139.06;5109078;28;1368;-70
2021/03/05 09:14:56;;;;;;;;;;;;;;;18.21;66.55;101131.09;5101737;28;1090;-70
2021/03/05 09:17:22;;;;;;;;;;;;;;;18.21;66.57;101136.38;5088858;28;1094;-70
2021/03/05 09:19:50;;;;;;;;;;;;;;;18.21;66.30;101134.56;5069721;28;1906;-71
2021/03/05 09:22:18;;;;;;;;;;;;;;;18.22;66.48;101124.88;5070223;28;1331;-71
2021/03/05 09:24:47;;;;;;;;;;;;;;;18.23;66.45;101135.34;5082030;28;1013;-71
2021/03/05 09:27:16;;;;;;;;;;;;;;;18.23;66.37;101140.63;5068298;28;1193;-70
2021/03/05 09:29:42;;;;;;;;;;;;;;;18.30;66.90;101141.19;5074233;28;1186;-68
2021/03/05 09:32:10;;;;;;;;;;;;;;;18.42;66.84;101135.31;5088784;28;1467;-68
2021/03/05 09:34:54;;;;;;;;;;;;;;;18.40;66.44;101134.50;5098707;28;1439;-69
2021/03/05 09:37:22;;;;;;;;;;;;;;;18.35;66.82;101133.91;5086751;28;1132;-69
2021/03/05 09:39:49;;;;;;;;;;;;;;;18.32;66.76;101134.91;5069379;28;1984;-69
2021/03/05 09:42:38;;;;;;;;;;;;;;;18.31;66.65;101140.25;5088119;28;1132;-69
2021/03/05 09:45:04;;;;;;;;;;;;;;;18.29;66.44;101134.19;5087678;28;1314;-69
2021/03/05 09:47:47;;;;;;;;;;;;;;;18.30;66.16;101141.19;5087681;28;1125;-69
2021/03/05 09:50:20;;;;;;;;;;;;;;;18.29;66.00;101142.97;5087895;28;1260;-68
2021/03/05 09:52:49;;;;;;;;;;;;;;;18.30;66.01;101143.84;5088280;28;1109;-69
2021/03/05 09:55:30;;;;;;;;;;;;;;;18.30;65.86;101149.09;5087738;28;1362;-69
2021/03/05 09:58:10;;;;;;;;;;;;;;;18.31;65.68;101151.66;5069500;28;1968;-70
2021/03/05 10:00:36;;;;;;;;;;;;;;;18.30;65.74;101143.84;5087875;28;1390;-68
2021/03/05 10:03:02;;;;;;;;;;;;;;;18.31;65.74;101145.50;5069488;28;1467;-68
2021/03/05 10:05:29;;;;;;;;;;;;;;;18.31;65.80;101146.38;5087681;28;1259;-69
2021/03/05 10:07:56;;;;;;;;;;;;;;;18.31;65.81;101140.25;5088150;28;1040;-69
2021/03/05 10:10:22;;;;;;;;;;;;;;;18.34;65.90;101148.00;5069692;28;1390;-69
2021/03/05 10:13:02;;;;;;;;;;;;;;;18.30;65.80;101138.56;5088244;28;1294;-69
2021/03/05 10:15:28;;;;;;;;;;;;;;;18.35;66.86;101152.34;5091691;28;1279;-69
2021/03/05 10:17:57;;;;;;;;;;;;;;;18.35;66.29;101152.34;5077829;28;1918;-67
2021/03/05 10:20:28;;;;;;;;;;;;;;;18.41;65.25;101147.66;5107727;28;1252;-68
2021/03/05 10:22:56;;;;;;;;;;;;;;;18.59;66.58;101139.78;5111506;28;941;-66
2021/03/05 10:25:23;;;;;;;;;;;;;;;18.56;67.15;101143.41;5099417;28;1375;-67
2021/03/05 10:27:49;;;;;;;;;;;;;;;18.52;67.16;101150.63;5091268;28;1043;-67
2021/03/05 10:30:15;;;;;;;;;;;;;;;18.50;67.44;101141.09;5090938;28;1316;-66
2021/03/05 10:32:47;;;;;;;;;;;;;;;18.50;67.30;101143.72;5100202;28;1577;-67
2021/03/05 10:35:17;;;;;;;;;;;;;;;18.58;67.17;101141.53;5100363;28;1280;-67
2021/03/05 10:37:44;;;;;;;;;;;;;;;18.55;67.23;101139.94;5072739;28;1292;-66
2021/03/05 10:40:12;;;;;;;;;;;;;;;18.53;67.21;101143.56;5092394;28;1972;-66
2021/03/05 10:42:38;;;;;;;;;;;;;;;18.53;67.18;101135.66;5109991;28;1083;-67
2021/03/05 10:45:04;;;;;;;;;;;;;;;18.54;67.24;101142.66;5090216;28;1386;-68
2021/03/05 10:47:32;;;;;;;;;;;;;;;18.53;67.42;101140.94;5090715;28;955;-68
2021/03/05 10:50:00;;;;;;;;;;;;;;;18.54;67.09;101142.66;5090195;28;1370;-68
2021/03/05 10:52:27;;;;;;;;;;;;;;;18.53;67.15;101146.22;5090688;28;1114;-67
2021/03/05 10:54:53;;;;;;;;;;;;;;;18.48;67.31;101129.75;5089965;28;1264;-68
2021/03/05 10:57:20;;;;;;;;;;;;;;;18.55;67.20;101139.06;5107661;28;1185;-68
2021/03/05 10:59:47;;;;;;;;;;;;;;;18.54;67.06;101147.94;5085615;28;1977;-67
2021/03/05 11:02:17;;;;;;;;;;;;;;;18.55;67.30;101142.56;5071850;28;1245;-68
2021/03/05 11:04:44;;;;;;;;;;;;;;;18.56;67.15;101146.06;5072118;28;1106;-67
2021/03/05 11:07:11;;;;;;;;;;;;;;;18.56;67.05;101135.50;5072204;28;1260;-68
2021/03/05 11:09:37;;;;;;;;;;;;;;;18.57;66.97;101136.38;5072011;28;1423;-68
2021/03/05 11:12:04;;;;;;;;;;;;;;;18.57;67.14;101139.00;5060350;28;1611;-67
2021/03/05 11:14:30;;;;;;;;;;;;;;;18.70;66.14;101143.56;5074362;28;1099;-70
2021/03/05 11:16:57;;;;;;;;;;;;;;;18.70;65.65;101145.34;5089559;28;1213;-69
2021/03/05 11:19:25;;;;;;;;;;;;;;;18.70;65.39;101148.84;5089652;28;1910;-69
2021/03/05 11:21:51;;;;;;;;;;;;;;;18.71;65.34;101144.44;5089764;28;1229;-69
2021/03/05 11:24:17;;;;;;;;;;;;;;;18.71;65.00;101145.28;5089749;28;1095;-69
2021/03/05 11:26:45;;;;;;;;;;;;;;;18.71;64.95;101147.94;5089974;28;1216;-69
2021/03/05 11:29:13;;;;;;;;;;;;;;;18.67;64.91;101138.44;5088448;28;1328;-69
2021/03/05 11:31:39;;;;;;;;;;;;;;;18.72;64.91;101144.38;5050847;28;1355;-70
2021/03/05 11:34:06;;;;;;;;;;;;;;;18.74;64.96;101149.56;5069596;28;1193;-70
2021/03/05 11:36:32;;;;;;;;;;;;;;;18.74;64.76;101144.28;5063362;28;1357;-71
2021/03/05 11:38:59;;;;;;;;;;;;;;;18.75;64.83;101146.00;5086990;28;1906;-71
2021/03/05 11:41:25;;;;;;;;;;;;;;;18.76;64.03;101145.91;5049228;28;1244;-69
2021/03/05 11:44:04;;;;;;;;;;;;;;;18.72;66.14;101149.66;5050053;28;1156;-70
2021/03/05 11:46:31;;;;;;;;;;;;;;;18.69;66.48;101141.03;5082723;28;1276;-70
2021/03/05 11:48:57;;;;;;;;;;;;;;;18.67;66.67;101143.72;5089667;28;1091;-69
2021/03/05 11:51:24;;;;;;;;;;;;;;;18.65;66.67;101148.25;5069528;28;1311;-68
2021/03/05 11:53:50;;;;;;;;;;;;;;;18.65;66.65;101148.25;5069739;28;1033;-68
2021/03/05 11:56:17;;;;;;;;;;;;;;;18.65;66.59;101142.97;5068853;28;1276;-68
2021/03/05 11:58:43;;;;;;;;;;;;;;;18.66;66.76;101136.75;5069457;28;1909;-67
2021/03/05 12:01:09;;;;;;;;;;;;;;;18.66;66.72;101136.75;5068779;28;1374;-70
2021/03/05 12:03:35;;;;;;;;;;;;;;;18.65;66.56;101132.41;5051349;28;1153;-69
2021/03/05 12:06:02;;;;;;;;;;;;;;;18.72;65.61;101133.81;5048499;28;1390;-71
2021/03/05 12:08:28;;;;;;;;;;;;;;;18.74;65.51;101142.50;5073937;28;1029;-74
2021/03/05 12:10:54;;;;;;;;;;;;;;;18.76;65.13;101137.97;5074439;28;1564;-73
2021/03/05 12:13:20;;;;;;;;;;;;;;;18.77;64.73;101126.50;5089363;28;1212;-74
2021/03/05 12:15:49;;;;;;;;;;;;;;;18.79;64.58;101127.28;5088590;28;1355;-72
2021/03/05 12:18:16;;;;;;;;;;;;;;;18.86;66.25;101117.25;5070293;28;1981;-71
2021/03/05 12:20:42;;;;;;;;;;;;;;;18.85;66.04;101116.41;5088827;28;1240;-71
2021/03/05 12:23:08;;;;;;;;;;;;;;;18.86;66.00;101119.91;5089035;28;1134;-69
2021/03/05 12:25:35;;;;;;;;;;;;;;;18.87;66.03;101116.34;5088614;28;1279;-69
2021/03/05 12:28:01;;;;;;;;;;;;;;;18.88;66.28;101121.53;5088825;28;1101;-69
2021/03/05 12:30:29;;;;;;;;;;;;;;;18.91;65.91;101120.50;5070025;28;1350;-69
2021/03/05 12:32:55;;;;;;;;;;;;;;;18.87;66.14;101118.97;5089030;28;1098;-73
2021/03/05 12:35:22;;;;;;;;;;;;;;;18.85;66.33;101119.03;5088257;28;1374;-72
2021/03/05 12:38:00;;;;;;;;;;;;;;;18.82;66.48;101106.00;5069437;28;1264;-68
2021/03/05 12:40:29;;;;;;;;;;;;;;;18.92;65.60;101109.03;5069209;28;1930;-71
2021/03/05 12:43:07;;;;;;;;;;;;;;;19.03;65.67;101101.38;5055251;28;1273;-73
2021/03/05 12:45:37;;;;;;;;;;;;;;;19.03;65.73;101112.81;5069692;28;1259;-74
2021/03/05 12:48:12;;;;;;;;;;;;;;;18.97;65.79;101105.19;5088289;28;1076;-71
2021/03/05 12:50:40;;;;;;;;;;;;;;;18.95;66.11;101099.16;5069944;28;1300;-74
2021/03/05 12:53:07;;;;;;;;;;;;;;;18.93;66.23;101092.25;5088853;28;1050;-75
2021/03/05 12:55:34;;;;;;;;;;;;;;;18.99;65.71;101092.78;5084071;28;1654;-69